Time;durP1;ratioP1;P1;durP2;ratioP2;P2;SDS_P1;SDS_P2;PMS_P1;PMS_P2;Temp;Humidity;BMP_temperature;BMP_pressure;BME280_temperature;BME280_humidity;BME280_pressure;Samples;Min_cycle;Max_cycle;Signal;HPM_P1;HPM_P2
2022/04/16 00:01:43;;;;;;;3.25;2.08;;;;;;;11.39;52.54;99774.69;5085674;28;20051;-72
2022/04/16 00:04:17;;;;;;;3.08;2.10;;;;;;;11.42;52.47;99771.00;5085732;28;20048;-70
2022/04/16 00:06:49;;;;;;;3.70;2.42;;;;;;;11.50;52.35;99764.38;5085403;28;20040;-71
2022/04/16 00:09:22;;;;;;;3.30;2.15;;;;;;;11.50;52.29;99767.00;5085782;28;20196;-70
2022/04/16 00:11:54;;;;;;;3.75;2.47;;;;;;;11.47;52.24;99761.00;5085705;28;20040;-69
2022/04/16 00:14:27;;;;;;;4.35;2.45;;;;;;;11.48;52.37;99766.25;5085466;28;20040;-69
2022/04/16 00:17:00;;;;;;;4.45;2.50;;;;;;;11.52;52.50;99766.94;5085320;28;20047;-68
2022/04/16 00:19:33;;;;;;;4.22;2.70;;;;;;;11.53;52.50;99763.34;5085634;28;20297;-68
2022/04/16 00:22:09;;;;;;;3.42;2.10;;;;;;;11.53;52.49;99753.59;5085801;28;20044;-68
2022/04/16 00:24:42;;;;;;;4.00;2.42;;;;;;;11.56;52.57;99756.06;5085390;28;20040;-68
2022/04/16 00:27:15;;;;;;;3.13;2.28;;;;;;;11.49;52.75;99751.16;5085373;28;20037;-68
2022/04/16 00:29:47;;;;;;;3.45;2.63;;;;;;;11.48;52.74;99752.09;5085349;28;20041;-68
2022/04/16 00:32:21;;;;;;;3.20;2.45;;;;;;;11.43;52.70;99756.81;5085447;28;20044;-68
2022/04/16 00:34:55;;;;;;;3.55;2.60;;;;;;;11.34;52.89;99755.47;5085298;28;20204;-68
2022/04/16 00:37:24;;;;;;;3.10;2.35;;;;;;;11.38;52.57;99751.72;5067785;28;20040;-68
2022/04/16 00:39:53;;;;;;;3.63;2.85;;;;;;;11.44;52.71;99753.22;5085164;28;20212;-68
2022/04/16 00:42:24;;;;;;;3.20;2.30;;;;;;;11.49;52.64;99748.53;5085180;28;20185;-69
2022/04/16 00:44:54;;;;;;;2.88;2.25;;;;;;;11.53;52.40;99742.09;5085243;28;20212;-69
2022/04/16 00:47:24;;;;;;;3.25;2.33;;;;;;;11.52;52.41;99733.28;5085460;28;20040;-69
2022/04/16 00:49:56;;;;;;;3.95;2.40;;;;;;;10.39;52.25;99560.63;5087234;28;20041;-69
2022/04/16 00:52:25;;;;;;;3.20;2.33;;;;;;;11.47;52.48;99734.47;5089577;28;20044;-69
2022/04/16 00:54:56;;;;;;;3.67;2.63;;;;;;;11.42;52.40;99733.84;5071989;28;20075;-69
2022/04/16 00:57:25;;;;;;;3.50;2.30;;;;;;;11.37;52.55;99739.41;5089327;28;20044;-69
2022/04/16 00:59:55;;;;;;;2.78;2.10;;;;;;;11.04;52.81;99696.06;5071793;28;20040;-69
2022/04/16 01:02:25;;;;;;;3.53;2.30;;;;;;;11.23;53.22;99744.56;5071833;28;20166;-69
2022/04/16 01:04:56;;;;;;;3.90;2.63;;;;;;;11.21;52.99;99767.66;5089082;28;20036;-69
2022/04/16 01:07:26;;;;;;;3.28;2.40;;;;;;;11.21;53.07;99742.00;5071383;28;20154;-70
2022/04/16 01:09:56;;;;;;;3.97;2.80;;;;;;;11.17;53.07;99735.13;5089533;28;20044;-69
2022/04/16 01:12:26;;;;;;;3.00;2.40;;;;;;;11.21;52.84;99739.34;5089075;28;20051;-70
2022/04/16 01:14:57;;;;;;;3.33;2.35;;;;;;;11.22;52.89;99743.72;5088928;28;20094;-69
2022/04/16 01:17:25;;;;;;;3.78;2.50;;;;;;;11.25;53.07;99742.69;5071556;28;20048;-70
2022/04/16 01:19:57;;;;;;;3.40;2.42;;;;;;;11.22;53.06;99735.75;5088770;28;20040;-69
2022/04/16 01:22:30;;;;;;;2.90;2.20;;;;;;;11.30;53.24;99737.16;5089269;28;20039;-69
2022/04/16 01:25:02;;;;;;;4.28;2.63;;;;;;;11.28;52.91;99734.56;5088923;28;20040;-69
2022/04/16 01:27:31;;;;;;;3.75;2.42;;;;;;;11.28;53.09;99741.69;5088578;28;20040;-69
2022/04/16 01:30:02;;;;;;;3.40;2.60;;;;;;;11.22;53.14;99738.41;5088550;28;20044;-69
2022/04/16 01:32:32;;;;;;;4.72;3.38;;;;;;;11.12;53.40;99731.00;5088620;28;20048;-69
2022/04/16 01:35:03;;;;;;;3.70;2.42;;;;;;;10.87;53.34;99678.34;5088963;28;20035;-69
2022/04/16 01:37:35;;;;;;;4.25;2.58;;;;;;;11.26;53.24;99732.94;5088369;28;20052;-69
2022/04/16 01:40:09;;;;;;;4.13;2.90;;;;;;;11.03;53.12;99689.03;5088763;28;20047;-69
2022/04/16 01:42:43;;;;;;;3.95;2.55;;;;;;;11.23;53.18;99732.16;5088373;28;20051;-69
2022/04/16 01:45:18;;;;;;;3.85;2.63;;;;;;;11.26;53.26;99730.28;5088216;28;20048;-69
2022/04/16 01:47:50;;;;;;;4.57;2.90;;;;;;;10.48;53.02;99626.41;5088478;28;20036;-68
2022/04/16 01:50:23;;;;;;;3.53;2.60;;;;;;;11.21;53.30;99726.06;5088461;28;20051;-69
2022/04/16 01:52:57;;;;;;;5.70;2.92;;;;;;;11.22;53.21;99718.97;5088066;28;20051;-69
2022/04/16 01:55:29;;;;;;;3.20;2.30;;;;;;;11.22;53.35;99727.78;5070626;28;20063;-69
2022/04/16 01:58:02;;;;;;;3.45;2.45;;;;;;;11.22;53.27;99729.59;5088031;28;20047;-69
2022/04/16 02:00:35;;;;;;;3.90;2.53;;;;;;;10.90;53.49;99680.84;5087814;28;20064;-69
2022/04/16 02:03:08;;;;;;;4.10;3.17;;;;;;;11.19;53.59;99727.09;5088217;28;20044;-69
2022/04/16 02:05:40;;;;;;;3.13;2.20;;;;;;;11.20;53.17;99732.31;5087881;28;20043;-70
2022/04/16 02:08:14;;;;;;;3.00;2.10;;;;;;;6.47;53.23;98934.19;5087692;28;20308;-69
2022/04/16 02:10:47;;;;;;;3.35;2.47;;;;;;;11.20;53.27;99720.84;5070542;28;20036;-69
2022/04/16 02:13:19;;;;;;;4.15;2.80;;;;;;;11.29;53.16;99720.38;5087967;28;20197;-69
2022/04/16 02:15:51;;;;;;;3.88;2.70;;;;;;;11.26;53.04;99719.66;5087997;28;20047;-69
2022/04/16 02:18:24;;;;;;;3.35;2.53;;;;;;;11.22;53.35;99711.88;5070155;28;20036;-69
2022/04/16 02:20:57;;;;;;;3.72;2.75;;;;;;;11.09;53.62;99705.50;5087831;28;20041;-69
2022/04/16 02:23:32;;;;;;;4.05;2.65;;;;;;;11.06;53.53;99703.00;5087536;28;20182;-69
2022/04/16 02:26:07;;;;;;;3.85;2.70;;;;;;;10.96;53.77;99717.66;5087829;28;20041;-69
2022/04/16 02:28:39;;;;;;;3.63;2.70;;;;;;;10.98;53.69;99710.50;5087483;28;20040;-69
2022/04/16 02:31:11;;;;;;;3.33;2.22;;;;;;;11.06;53.62;99710.94;5087586;28;20281;-69
2022/04/16 02:33:43;;;;;;;3.80;2.72;;;;;;;10.96;54.01;99714.16;5087623;28;20040;-69
2022/04/16 02:36:16;;;;;;;3.85;2.60;;;;;;;11.03;53.65;99715.56;5070259;28;20040;-69
2022/04/16 02:38:51;;;;;;;3.50;2.45;;;;;;;11.00;53.65;99707.75;5087589;28;20040;-69
2022/04/16 02:41:23;;;;;;;4.07;2.80;;;;;;;11.02;53.90;99713.84;5070066;28;20040;-69
2022/04/16 02:43:58;;;;;;;3.70;2.78;;;;;;;10.97;53.88;99708.78;5087262;28;20323;-69
2022/04/16 02:49:19;;;;;;;3.35;2.65;;;;;;;10.83;54.24;99713.91;5087320;28;20371;-69
2022/04/16 02:51:52;;;;;;;4.78;3.13;;;;;;;10.83;54.34;99705.97;5087250;28;20040;-69
2022/04/16 02:54:25;;;;;;;3.45;2.70;;;;;;;10.91;54.06;99709.09;5086977;28;20037;-69
2022/04/16 02:56:58;;;;;;;3.17;2.22;;;;;;;9.24;54.55;99435.75;5087247;28;20040;-69
2022/04/16 02:59:31;;;;;;;3.80;2.75;;;;;;;10.81;54.57;99706.03;5087101;28;20041;-69
2022/04/16 03:02:03;;;;;;;4.07;3.28;;;;;;;10.77;54.65;99712.44;5086793;28;20112;-71
2022/04/16 03:04:36;;;;;;;4.05;2.83;;;;;;;10.70;54.92;99705.69;5087008;28;20040;-70
2022/04/16 03:07:08;;;;;;;4.20;3.22;;;;;;;10.68;54.88;99710.22;5069128;28;20071;-71
2022/04/16 03:09:42;;;;;;;3.47;2.78;;;;;;;10.81;54.58;99716.66;5086617;28;20200;-70
2022/04/16 03:12:14;;;;;;;4.07;2.77;;;;;;;10.71;54.69;99706.56;5086012;28;20059;-70
2022/04/16 03:17:36;;;;;;;3.97;3.17;;;;;;;10.71;55.27;99707.41;5086592;28;20036;-70
2022/04/16 03:20:09;;;;;;;3.92;2.92;;;;;;;10.67;55.31;99705.84;5086737;28;20041;-70
2022/04/16 03:22:38;;;;;;;3.55;2.67;;;;;;;10.63;55.41;99714.03;5086722;28;20044;-70
2022/04/16 03:25:09;;;;;;;3.70;2.67;;;;;;;10.63;55.42;99711.38;5086650;28;20036;-70
2022/04/16 03:27:37;;;;;;;3.53;2.50;;;;;;;10.58;55.33;99707.16;5086188;28;20045;-70
2022/04/16 03:30:09;;;;;;;4.30;3.22;;;;;;;10.69;55.32;99705.78;5087095;28;20217;-70
2022/04/16 03:32:39;;;;;;;4.10;2.40;;;;;;;10.72;55.34;99713.56;5069226;28;20190;-70
2022/04/16 03:35:09;;;;;;;3.70;2.63;;;;;;;10.72;55.30;99730.34;5086328;28;20040;-70
2022/04/16 03:37:38;;;;;;;3.47;2.45;;;;;;;10.80;55.04;99722.03;5069270;28;20041;-70
2022/04/16 03:40:12;;;;;;;3.47;2.45;;;;;;;10.83;55.68;99727.19;5086123;28;20239;-70
2022/04/16 03:42:48;;;;;;;3.50;2.42;;;;;;;10.86;55.31;99724.38;5086260;28;20200;-70
2022/04/16 03:45:23;;;;;;;3.80;2.28;;;;;;;10.64;54.90;99682.16;5086049;28;20307;-70
2022/04/16 03:47:56;;;;;;;5.22;2.72;;;;;;;10.89;55.02;99726.88;5068519;28;20048;-70
2022/04/16 03:50:31;;;;;;;3.58;2.47;;;;;;;10.81;55.20;99753.78;5086083;28;20040;-70
2022/04/16 03:53:04;;;;;;;3.00;1.95;;;;;;;10.83;55.63;99727.19;5068265;28;20044;-70
2022/04/16 04:01:18;;;;;;;3.53;2.63;;;;;;;10.94;55.07;99735.44;5085631;28;20297;-70
2022/04/16 04:03:51;;;;;;;3.85;2.80;;;;;;;10.88;55.28;99735.75;5068355;28;20301;-70
2022/04/16 04:06:24;;;;;;;3.03;2.40;;;;;;;10.87;55.06;99736.69;5068108;28;20200;-70
2022/04/16 04:08:57;;;;;;;3.95;2.72;;;;;;;9.73;55.33;99610.69;5068580;28;20059;-70
2022/04/16 04:11:30;;;;;;;3.95;2.55;;;;;;;10.82;55.50;99744.88;5085537;28;20040;-70
2022/04/16 04:14:02;;;;;;;3.40;2.22;;;;;;;10.85;55.42;99746.53;5085383;28;20048;-70
2022/04/16 04:16:35;;;;;;;4.03;2.92;;;;;;;10.76;55.62;99750.44;5085655;28;20040;-70
2022/04/16 04:19:07;;;;;;;3.83;2.65;;;;;;;10.79;55.79;99752.13;5085494;28;20048;-70
2022/04/16 04:21:39;;;;;;;4.65;2.70;;;;;;;10.39;55.97;99711.66;5085480;28;20052;-70
2022/04/16 04:24:11;;;;;;;3.13;2.28;;;;;;;10.37;55.99;99707.34;5084730;28;20044;-70
2022/04/16 04:26:45;;;;;;;3.75;2.83;;;;;;;10.71;55.99;99759.56;5085583;28;20284;-70
2022/04/16 04:29:17;;;;;;;5.00;3.60;;;;;;;10.73;55.71;99758.56;5068258;28;20090;-70
2022/04/16 04:31:49;;;;;;;4.55;3.33;;;;;;;10.78;55.79;99766.31;5085371;28;20044;-70
2022/04/16 04:34:22;;;;;;;4.85;3.53;;;;;;;10.72;55.88;99758.63;5085237;28;20048;-70
2022/04/16 04:36:54;;;;;;;4.22;3.47;;;;;;;10.78;55.99;99761.00;5085265;28;20036;-70
2022/04/16 04:39:26;;;;;;;4.07;3.22;;;;;;;10.49;56.19;99727.97;5085285;28;20037;-70
2022/04/16 04:42:00;;;;;;;3.83;3.15;;;;;;;10.74;56.19;99768.22;5085313;28;20048;-70
2022/04/16 04:44:32;;;;;;;4.53;3.17;;;;;;;10.73;56.02;99777.13;5085557;28;20284;-70
2022/04/16 04:47:05;;;;;;;4.20;3.42;;;;;;;10.75;55.83;99774.38;5085164;28;20086;-70
2022/04/16 04:49:37;;;;;;;4.57;3.58;;;;;;;10.66;56.32;99782.78;5085242;28;20040;-70
2022/04/16 04:52:09;;;;;;;6.45;4.40;;;;;;;10.57;56.24;99782.31;5085333;28;20090;-70
2022/04/16 04:54:41;;;;;;;8.65;6.68;;;;;;;10.55;56.24;99788.63;5085084;28;20044;-70
2022/04/16 04:57:15;;;;;;;5.82;3.88;;;;;;;10.52;56.26;99786.97;5067666;28;20346;-70
2022/04/16 04:59:47;;;;;;;4.50;3.17;;;;;;;10.38;56.12;99788.56;5085436;28;20044;-70
2022/04/16 05:02:19;;;;;;;5.38;4.15;;;;;;;10.50;56.00;99787.97;5085025;28;20040;-70
2022/04/16 05:04:52;;;;;;;6.45;4.22;;;;;;;10.50;55.81;99793.28;5085226;28;20082;-70
2022/04/16 05:07:24;;;;;;;4.63;3.35;;;;;;;10.46;55.85;99792.56;5084958;28;20106;-70
2022/04/16 05:09:56;;;;;;;4.45;3.90;;;;;;;10.34;55.78;99795.78;5085020;28;20358;-70
2022/04/16 05:12:30;;;;;;;5.10;3.70;;;;;;;10.20;55.94;99777.03;5084964;28;20219;-70
2022/04/16 05:15:03;;;;;;;4.50;3.70;;;;;;;10.11;55.57;99764.22;5085216;28;20040;-70
2022/04/16 05:17:32;;;;;;;4.80;4.05;;;;;;;10.38;55.54;99810.63;5067492;28;20059;-70
2022/04/16 05:20:04;;;;;;;5.40;4.13;;;;;;;10.39;55.56;99811.47;5085101;28;20094;-70
2022/04/16 05:22:32;;;;;;;4.90;3.78;;;;;;;10.33;55.53;99812.63;5067339;28;20044;-70
2022/04/16 05:25:03;;;;;;;4.45;3.10;;;;;;;9.68;55.45;99726.50;5084822;28;20040;-70
2022/04/16 05:27:35;;;;;;;4.32;3.20;;;;;;;8.96;55.47;99597.44;5085099;28;20028;-70
2022/04/16 05:30:14;;;;;;;4.00;3.03;;;;;;;10.32;55.42;99828.59;5084740;28;20041;-70
2022/04/16 05:32:47;;;;;;;5.20;4.03;;;;;;;10.31;55.34;99835.69;5084925;28;20044;-70
2022/04/16 05:35:20;;;;;;;4.75;3.67;;;;;;;10.29;55.29;99832.25;5085575;28;20052;-70
2022/04/16 05:37:52;;;;;;;4.90;3.65;;;;;;;10.24;55.36;99843.03;5071143;28;20044;-70
2022/04/16 05:40:24;;;;;;;6.10;4.22;;;;;;;10.29;55.46;99842.84;5088365;28;20037;-70
2022/04/16 05:42:58;;;;;;;4.97;3.67;;;;;;;10.35;55.47;99847.84;5088295;28;20208;-70
2022/04/16 05:45:30;;;;;;;4.50;3.38;;;;;;;10.31;55.44;99846.28;5088276;28;20044;-70
2022/04/16 05:48:02;;;;;;;3.78;3.20;;;;;;;10.32;55.43;99853.28;5088212;28;20312;-70
2022/04/16 05:50:35;;;;;;;4.25;3.28;;;;;;;10.38;55.35;99847.72;5088132;28;20212;-70
2022/04/16 05:53:11;;;;;;;4.05;3.05;;;;;;;10.42;55.34;99848.44;5088033;28;20174;-70
2022/04/16 05:55:47;;;;;;;4.50;3.03;;;;;;;10.42;54.98;99867.84;5070841;28;20044;-70
2022/04/16 05:58:20;;;;;;;4.20;3.25;;;;;;;10.22;54.98;99809.63;5087941;28;20098;-71
2022/04/16 06:00:54;;;;;;;5.03;3.65;;;;;;;10.41;55.05;99852.88;5070557;28;20047;-70
2022/04/16 06:03:26;;;;;;;3.65;2.80;;;;;;;10.13;55.09;99816.19;5088147;28;20090;-70
2022/04/16 06:06:00;;;;;;;3.70;2.35;;;;;;;10.34;55.02;99851.44;5070621;28;20055;-70
2022/04/16 06:08:33;;;;;;;5.00;2.75;;;;;;;10.31;54.86;99845.41;5087919;28;20101;-70
2022/04/16 06:11:06;;;;;;;3.70;2.80;;;;;;;9.16;54.80;99667.94;5087839;28;20086;-70
2022/04/16 06:13:39;;;;;;;4.22;2.85;;;;;;;10.19;55.10;99842.41;5088004;28;20288;-70
2022/04/16 06:16:12;;;;;;;3.40;2.85;;;;;;;9.90;54.95;99796.06;5087903;28;20040;-70
2022/04/16 06:18:44;;;;;;;4.15;3.03;;;;;;;10.25;54.77;99842.13;5070317;28;20296;-70
2022/04/16 06:21:16;;;;;;;3.75;3.00;;;;;;;10.34;54.64;99840.84;5087318;28;20040;-70
2022/04/16 06:23:49;;;;;;;5.05;2.80;;;;;;;10.36;54.54;99844.28;5087590;28;20097;-70
2022/04/16 06:26:21;;;;;;;4.00;2.40;;;;;;;10.35;54.67;99847.00;5087439;28;20091;-70
2022/04/16 06:28:55;;;;;;;3.20;2.50;;;;;;;10.29;54.53;99853.44;5087496;28;20044;-70
2022/04/16 06:31:27;;;;;;;3.83;2.15;;;;;;;8.65;54.47;99629.63;5069952;28;20044;-70
2022/04/16 06:33:59;;;;;;;8.07;2.38;;;;;;;10.36;54.41;99867.25;5087341;28;20044;-70
2022/04/16 06:36:31;;;;;;;3.40;2.53;;;;;;;10.37;54.33;99863.69;5069890;28;20036;-70
2022/04/16 06:39:03;;;;;;;3.63;2.53;;;;;;;10.38;54.29;99874.22;5087391;28;20040;-70
2022/04/16 06:41:36;;;;;;;3.13;2.30;;;;;;;10.43;54.26;99882.81;5087279;28;20181;-70
2022/04/16 06:44:09;;;;;;;3.47;2.65;;;;;;;10.41;54.20;99881.16;5087252;28;20086;-70
2022/04/16 06:46:41;;;;;;;3.60;2.75;;;;;;;10.42;54.38;99872.28;5086615;28;20048;-70
2022/04/16 06:49:14;;;;;;;3.60;2.90;;;;;;;10.40;54.37;99877.66;5087071;28;20090;-70
2022/04/16 06:51:46;;;;;;;4.22;2.70;;;;;;;10.48;54.24;99888.75;5086922;28;20049;-70
2022/04/16 06:54:18;;;;;;;3.80;2.63;;;;;;;10.46;54.27;99887.09;5087111;28;20037;-70
2022/04/16 06:56:50;;;;;;;4.50;3.70;;;;;;;10.41;54.29;99883.81;5087306;28;20040;-70
2022/04/16 06:59:24;;;;;;;3.47;2.63;;;;;;;10.47;54.08;99887.03;5086770;28;20040;-70
2022/04/16 07:01:56;;;;;;;3.50;2.53;;;;;;;10.53;54.06;99893.84;5086799;28;20044;-70
2022/04/16 07:04:29;;;;;;;3.92;2.90;;;;;;;10.56;53.95;99889.25;5087279;28;20045;-70
2022/04/16 07:07:01;;;;;;;3.17;2.47;;;;;;;10.65;53.97;99887.97;5086582;28;20040;-71
2022/04/16 07:09:38;;;;;;;3.35;2.28;;;;;;;10.44;53.79;99857.16;5086642;28;20044;-70
2022/04/16 07:12:12;;;;;;;3.88;2.65;;;;;;;10.66;53.68;99899.44;5086709;28;20048;-70
2022/04/16 07:14:45;;;;;;;2.93;2.30;;;;;;;10.61;53.78;99902.28;5069536;28;20055;-70
2022/04/16 07:17:18;;;;;;;3.50;2.58;;;;;;;10.62;53.80;99908.44;5086478;28;20379;-70
2022/04/16 07:19:50;;;;;;;4.57;3.15;;;;;;;10.70;53.70;99915.13;5069145;28;20284;-70
2022/04/16 07:22:22;;;;;;;3.15;2.30;;;;;;;10.73;53.76;99911.47;5086466;28;20041;-70
2022/04/16 07:24:54;;;;;;;4.03;3.17;;;;;;;8.83;53.51;99598.91;5068856;28;20289;-70
2022/04/16 07:27:27;;;;;;;4.93;3.28;;;;;;;10.60;53.50;99929.72;5086534;28;20045;-71
2022/04/16 07:30:00;;;;;;;4.30;2.20;;;;;;;10.19;52.98;99882.13;5086459;28;20040;-70
2022/04/16 07:32:32;;;;;;;2.50;1.55;;;;;;;10.43;53.26;99934.94;5086165;28;20051;-71
2022/04/16 07:35:03;;;;;;;2.80;1.70;;;;;;;10.45;53.02;99936.59;5086052;28;20052;-71
2022/04/16 07:37:33;;;;;;;2.88;1.80;;;;;;;10.25;52.82;99892.44;5086582;28;20048;-70
2022/04/16 07:40:03;;;;;;;2.60;1.80;;;;;;;10.50;52.76;99931.94;5086122;28;20348;-70
2022/04/16 07:42:33;;;;;;;3.22;1.75;;;;;;;10.21;52.66;99893.53;5068666;28;20032;-70
2022/04/16 07:45:06;;;;;;;3.00;1.80;;;;;;;9.59;52.51;99801.00;5086127;28;20289;-71
2022/04/16 07:47:33;;;;;;;2.70;1.70;;;;;;;10.37;52.83;99937.88;5085441;28;20053;-70
2022/04/16 07:50:04;;;;;;;2.50;1.58;;;;;;;10.36;53.02;99944.94;5086144;28;20347;-71
2022/04/16 07:52:33;;;;;;;3.10;1.88;;;;;;;10.43;52.81;99935.78;5085758;28;20245;-71
2022/04/16 07:55:04;;;;;;;2.90;1.60;;;;;;;10.41;52.90;99942.09;5085683;28;20102;-70
2022/04/16 07:57:34;;;;;;;2.63;1.77;;;;;;;10.36;52.75;99946.75;5085990;28;20107;-71
2022/04/16 08:00:07;;;;;;;3.30;1.80;;;;;;;9.98;52.79;99909.56;5085410;28;20040;-71
2022/04/16 08:02:39;;;;;;;3.00;1.80;;;;;;;10.34;53.03;99951.25;5085639;28;20044;-71
2022/04/16 08:05:09;;;;;;;5.32;2.03;;;;;;;10.34;52.85;99948.59;5068523;28;20040;-70
2022/04/16 08:07:39;;;;;;;3.35;2.08;;;;;;;10.43;52.75;99951.69;5085188;28;20061;-70
2022/04/16 08:10:10;;;;;;;2.90;1.90;;;;;;;10.43;52.79;99951.69;5085615;28;20043;-71
2022/04/16 08:12:40;;;;;;;2.60;1.83;;;;;;;10.41;53.06;99974.75;5085250;28;20071;-71
2022/04/16 08:15:11;;;;;;;3.83;2.28;;;;;;;10.34;52.82;99962.72;5085467;28;20086;-71
2022/04/16 08:17:40;;;;;;;2.65;1.95;;;;;;;10.32;52.75;99964.56;5085337;28;20060;-70
2022/04/16 08:20:10;;;;;;;3.75;2.13;;;;;;;10.28;53.10;99977.09;5085507;28;20044;-70
2022/04/16 08:22:40;;;;;;;3.40;1.95;;;;;;;10.34;52.94;99980.41;5085860;28;20036;-71
2022/04/16 08:28:00;;;;;;;3.22;2.15;;;;;;;10.33;53.04;99976.03;5085451;28;20094;-71
2022/04/16 08:30:33;;;;;;;3.47;2.55;;;;;;;10.35;53.06;99985.63;5085269;28;20037;-71
2022/04/16 08:33:07;;;;;;;4.80;2.30;;;;;;;10.28;53.17;99987.69;5085248;28;20041;-71
2022/04/16 08:35:42;;;;;;;3.88;2.33;;;;;;;9.97;53.25;99946.72;5085097;28;20048;-71
2022/04/16 08:38:15;;;;;;;3.88;2.35;;;;;;;10.11;53.07;99944.31;5084969;28;20044;-70
2022/04/16 08:40:50;;;;;;;3.45;2.20;;;;;;;10.36;53.10;99994.44;5085150;28;20044;-71
2022/04/16 08:43:22;;;;;;;4.70;2.22;;;;;;;10.35;53.16;99995.38;5084841;28;20082;-70
2022/04/16 08:45:57;;;;;;;3.22;1.98;;;;;;;10.36;53.13;99999.72;5084855;28;20044;-70
2022/04/16 08:48:31;;;;;;;5.03;2.75;;;;;;;10.30;53.04;99998.22;5084846;28;20040;-70
2022/04/16 08:51:03;;;;;;;3.13;1.83;;;;;;;9.96;53.13;99951.16;5084951;28;20040;-71
2022/04/16 08:53:36;;;;;;;2.60;1.90;;;;;;;10.23;52.91;100008.22;5084756;28;20093;-71
2022/04/16 08:56:08;;;;;;;7.57;2.10;;;;;;;10.17;53.09;99997.03;5085037;28;20044;-71
2022/04/16 08:58:41;;;;;;;3.08;1.70;;;;;;;10.21;53.06;100009.22;5084944;28;20048;-70
2022/04/16 09:01:16;;;;;;;3.53;1.98;;;;;;;10.25;52.90;100016.97;5067435;28;20052;-70
2022/04/16 09:03:55;;;;;;;3.88;2.45;;;;;;;10.31;52.71;100012.31;5085182;28;20090;-71
2022/04/16 09:06:28;;;;;;;4.65;3.10;;;;;;;10.34;52.95;100010.41;5085158;28;20040;-71
2022/04/16 09:09:11;;;;;;;4.38;3.08;;;;;;;10.31;52.76;100018.47;5084778;28;20056;-70
2022/04/16 09:11:48;;;;;;;5.55;2.60;;;;;;;10.08;52.82;99982.41;5070486;28;20040;-71
2022/04/16 09:14:20;;;;;;;4.72;2.60;;;;;;;10.08;52.92;99970.94;5088951;28;20044;-70
2022/04/16 09:16:53;;;;;;;4.90;2.50;;;;;;;10.36;52.78;100027.09;5088634;28;20059;-71
2022/04/16 09:19:30;;;;;;;4.18;2.72;;;;;;;10.04;52.59;99972.00;5088569;28;20040;-71
2022/04/16 09:22:02;;;;;;;2.90;1.80;;;;;;;10.35;52.88;100033.31;5088434;28;20082;-70
2022/04/16 09:24:47;;;;;;;3.65;2.15;;;;;;;10.34;52.55;100026.28;5088716;28;20044;-71
2022/04/16 09:27:19;;;;;;;4.20;3.13;;;;;;;10.35;52.73;100033.31;5088789;28;20036;-71
2022/04/16 09:29:51;;;;;;;4.18;2.35;;;;;;;10.34;52.71;100036.91;5088425;28;20048;-71
2022/04/16 09:32:25;;;;;;;3.22;2.45;;;;;;;9.52;52.51;99890.38;5088593;28;20330;-71
2022/04/16 09:34:58;;;;;;;5.13;2.60;;;;;;;10.37;52.48;100035.91;5088532;28;20040;-70
2022/04/16 09:37:34;;;;;;;3.92;2.60;;;;;;;10.32;52.11;100040.53;5071095;28;20045;-71
2022/04/16 09:40:12;;;;;;;4.28;2.88;;;;;;;10.27;52.13;100046.03;5088468;28;20041;-71
2022/04/16 09:42:40;;;;;;;3.92;3.15;;;;;;;10.31;52.32;100044.97;5088381;28;20102;-71
2022/04/16 09:45:14;;;;;;;3.15;2.30;;;;;;;10.39;51.86;100044.66;5088525;28;20051;-71
2022/04/16 09:47:51;;;;;;;4.70;2.22;;;;;;;10.41;51.48;100034.84;5070739;28;20040;-71
2022/04/16 09:50:24;;;;;;;4.07;2.72;;;;;;;10.14;51.74;99978.63;5088270;28;20284;-71
2022/04/16 09:52:58;;;;;;;4.20;2.65;;;;;;;10.55;51.57;100043.03;5054584;28;20094;-71
2022/04/16 09:55:30;;;;;;;5.07;2.90;;;;;;;10.58;51.59;100040.25;5087920;28;20048;-71
2022/04/16 09:58:04;;;;;;;3.88;2.65;;;;;;;10.60;51.19;100043.69;5088240;28;20048;-71
2022/04/16 10:00:38;;;;;;;3.77;2.13;;;;;;;10.65;51.22;100044.34;5087872;28;20319;-71
2022/04/16 10:03:12;;;;;;;3.17;2.15;;;;;;;10.69;50.85;100043.28;5088086;28;20197;-70
2022/04/16 10:05:45;;;;;;;4.47;3.08;;;;;;;10.82;51.04;100052.44;5087837;28;20044;-70
2022/04/16 10:08:18;;;;;;;3.35;2.22;;;;;;;10.63;50.73;99993.19;5087551;28;20052;-71
2022/04/16 10:10:54;;;;;;;4.82;3.20;;;;;;;10.76;50.16;99996.16;5087755;28;20044;-71
2022/04/16 10:13:33;;;;;;;4.43;2.92;;;;;;;11.11;49.77;100037.00;5087599;28;20204;-70
2022/04/16 10:16:13;;;;;;;5.07;2.92;;;;;;;10.20;49.59;99859.16;5087430;28;20044;-71
2022/04/16 10:18:49;;;;;;;4.00;2.75;;;;;;;11.47;49.28;100037.06;5087473;28;20086;-70
2022/04/16 10:21:21;;;;;;;3.92;2.60;;;;;;;11.35;49.16;99988.06;5087354;28;20037;-71
2022/04/16 10:24:02;;;;;;;3.78;2.50;;;;;;;11.72;48.25;100031.41;5087539;28;20048;-71
2022/04/16 10:26:39;;;;;;;4.65;3.53;;;;;;;11.72;48.22;100047.34;5087691;28;20094;-71
2022/04/16 10:29:11;;;;;;;4.22;3.03;;;;;;;11.72;47.76;100031.41;5070076;28;20048;-71
2022/04/16 10:31:49;;;;;;;4.72;3.10;;;;;;;11.72;47.41;100034.94;5087339;28;20342;-71
2022/04/16 10:34:30;;;;;;;4.82;2.85;;;;;;;11.78;46.63;100031.09;5087411;28;20048;-71
2022/04/16 10:37:02;;;;;;;4.32;2.50;;;;;;;11.81;47.89;100028.31;5087013;28;20285;-71
2022/04/16 10:39:38;;;;;;;3.70;2.50;;;;;;;11.95;47.61;100032.94;5087478;28;20106;-71
2022/04/16 10:42:10;;;;;;;3.60;2.63;;;;;;;12.18;46.69;100025.56;5087326;28;20037;-71
2022/04/16 10:44:47;;;;;;;4.25;2.90;;;;;;;12.46;45.63;100032.97;5086952;28;20350;-70
2022/04/16 10:47:21;;;;;;;3.60;2.50;;;;;;;12.57;45.42;100058.16;5087196;28;20040;-71
2022/04/16 10:49:59;;;;;;;2.97;2.47;;;;;;;12.62;44.32;100046.34;5087004;28;20036;-70
2022/04/16 10:52:31;;;;;;;2.75;2.25;;;;;;;12.51;45.12;100038.94;5052760;28;20203;-70
2022/04/16 10:55:06;;;;;;;3.65;2.42;;;;;;;12.37;44.94;100052.06;5069455;28;20047;-70
2022/04/16 10:57:38;;;;;;;8.15;2.80;;;;;;;12.19;45.95;100045.91;5087166;28;20086;-71
2022/04/16 11:00:14;;;;;;;4.35;2.88;;;;;;;12.12;44.57;100052.44;5086915;28;20033;-70
2022/04/16 11:02:46;;;;;;;4.10;2.90;;;;;;;11.88;46.16;100065.09;5086828;28;20036;-70
2022/04/16 11:05:22;;;;;;;5.97;2.85;;;;;;;11.31;45.08;99996.25;5052585;28;20316;-70
2022/04/16 11:07:56;;;;;;;5.57;3.92;;;;;;;11.59;46.33;100076.28;5069177;28;20116;-71
2022/04/16 11:10:28;;;;;;;4.80;3.30;;;;;;;11.36;47.27;100087.13;5086794;28;20103;-71
2022/04/16 11:13:02;;;;;;;4.18;3.28;;;;;;;11.31;47.65;100094.44;5086856;28;20195;-70
2022/04/16 11:15:35;;;;;;;6.95;3.88;;;;;;;11.29;47.78;100086.56;5086539;28;20107;-71
2022/04/16 11:18:07;;;;;;;4.13;2.70;;;;;;;11.25;47.58;100098.25;5086536;28;20103;-72
2022/04/16 11:20:43;;;;;;;5.32;3.28;;;;;;;11.18;47.41;100097.66;5069157;28;20288;-71
2022/04/16 11:23:15;;;;;;;7.25;4.57;;;;;;;11.08;47.43;100092.84;5086347;28;20044;-72
2022/04/16 11:34:20;;;;;;;6.30;4.35;;;;;;;9.88;46.93;99953.25;5085790;28;20044;-72
2022/04/16 11:36:54;;;;;;;6.25;4.30;;;;;;;10.87;47.79;100094.66;5086172;28;20040;-71
2022/04/16 11:39:28;;;;;;;5.45;4.35;;;;;;;10.04;47.64;99974.66;5085853;28;20097;-71
2022/04/16 11:42:05;;;;;;;7.07;4.17;;;;;;;10.75;47.27;100096.03;5086255;28;20040;-71
2022/04/16 11:44:40;;;;;;;6.93;4.80;;;;;;;10.73;47.84;100108.50;5086097;28;20554;-71
2022/04/16 11:47:14;;;;;;;5.88;4.32;;;;;;;10.71;47.44;100098.91;5086084;28;20066;-71
2022/04/16 11:49:47;;;;;;;6.20;4.68;;;;;;;10.69;47.70;100100.75;5085806;28;20071;-71
2022/04/16 11:52:25;;;;;;;4.68;3.42;;;;;;;9.89;46.58;99971.72;5086114;28;20044;-71
2022/04/16 11:55:02;;;;;;;6.75;4.53;;;;;;;10.71;47.05;100109.50;5085695;28;20048;-71
2022/04/16 11:57:33;;;;;;;6.03;4.85;;;;;;;10.73;46.72;100100.56;5085734;28;20036;-71
2022/04/16 12:00:05;;;;;;;8.30;5.30;;;;;;;10.74;47.35;100102.28;5068127;28;20056;-72
2022/04/16 12:02:34;;;;;;;7.57;5.13;;;;;;;10.69;47.05;100100.75;5085558;28;20124;-71
2022/04/16 12:05:12;;;;;;;6.70;4.70;;;;;;;10.66;46.23;100111.50;5085631;28;20040;-71
2022/04/16 12:07:48;;;;;;;9.27;6.15;;;;;;;10.68;46.54;100109.63;5085186;28;20060;-71
2022/04/16 12:10:21;;;;;;;6.88;4.72;;;;;;;10.69;47.17;100111.34;5067865;28;20115;-71
2022/04/16 12:12:56;;;;;;;7.35;4.50;;;;;;;10.48;46.97;100057.50;5085396;28;20051;-71
2022/04/16 12:15:29;;;;;;;5.85;4.43;;;;;;;9.66;47.23;99953.31;5085052;28;20041;-71
2022/04/16 12:18:10;;;;;;;5.65;4.10;;;;;;;10.71;45.74;100094.47;5067944;28;20037;-72
2022/04/16 12:20:46;;;;;;;4.47;3.42;;;;;;;10.54;46.93;100081.09;5085247;28;20040;-71